createdAt,value
2019-04-16T00:01:37.630Z,6.80
2019-04-16T00:04:22.290Z,6.80
2019-04-16T00:07:08.550Z,6.70
2019-04-16T00:09:59.006Z,6.70
2019-04-16T00:12:44.506Z,6.70
2019-04-16T00:15:13.874Z,6.70
2019-04-16T00:17:44.364Z,6.70
2019-04-16T00:20:14.142Z,6.60
2019-04-16T00:22:55.889Z,6.50
2019-04-16T00:25:25.753Z,6.50
2019-04-16T00:27:59.589Z,6.40
2019-04-16T00:30:26.376Z,6.40
2019-04-16T00:32:56.256Z,6.30
2019-04-16T00:35:25.585Z,6.30
2019-04-16T00:37:55.002Z,6.30
2019-04-16T00:40:26.572Z,6.30
2019-04-16T00:42:55.649Z,6.30
2019-04-16T00:45:24.975Z,6.20
2019-04-16T00:47:54.273Z,6.20
2019-04-16T00:50:23.717Z,6.20
2019-04-16T00:52:53.345Z,6.10
2019-04-16T00:55:22.697Z,6.10
2019-04-16T00:57:52.064Z,6.00
2019-04-16T01:00:21.401Z,6.00
2019-04-16T01:02:50.705Z,5.90
2019-04-16T01:05:19.962Z,5.90
2019-04-16T01:07:49.241Z,5.90
2019-04-16T01:10:18.601Z,5.90
2019-04-16T01:12:47.985Z,5.90
2019-04-16T01:15:17.329Z,5.90
2019-04-16T01:17:46.625Z,5.80
2019-04-16T01:20:15.812Z,5.90
2019-04-16T01:22:46.811Z,5.80
2019-04-16T01:25:15.995Z,5.70
2019-04-16T01:27:49.284Z,5.70
2019-04-16T01:30:24.528Z,5.60
2019-04-16T01:33:07.132Z,5.60
2019-04-16T01:36:01.834Z,5.60
2019-04-16T01:38:52.220Z,5.60
2019-04-16T01:41:22.604Z,5.50
2019-04-16T01:43:54.283Z,5.50
2019-04-16T01:46:23.023Z,5.50
2019-04-16T01:48:52.344Z,5.40
2019-04-16T01:51:21.720Z,5.50
2019-04-16T01:53:52.361Z,5.40
2019-04-16T01:56:22.453Z,5.40
2019-04-16T01:58:51.860Z,5.40
2019-04-16T02:01:21.106Z,5.40
2019-04-16T02:03:50.417Z,5.30
2019-04-16T02:06:19.734Z,5.30
2019-04-16T02:08:49.032Z,5.30
2019-04-16T02:11:18.399Z,5.30
2019-04-16T02:13:47.791Z,5.20
2019-04-16T02:16:17.108Z,5.20
2019-04-16T02:18:46.380Z,5.20
2019-04-16T02:21:15.676Z,5.30
2019-04-16T02:23:45.416Z,5.30
2019-04-16T02:26:15.995Z,5.30
2019-04-16T02:28:45.384Z,5.30
2019-04-16T02:31:16.295Z,5.30
2019-04-16T02:33:45.827Z,5.20
2019-04-16T02:36:15.189Z,5.20
2019-04-16T02:38:52.607Z,5.20
2019-04-16T02:41:15.472Z,5.20
2019-04-16T02:43:44.811Z,5.20
2019-04-16T02:46:14.405Z,5.10
2019-04-16T02:48:49.960Z,5.10
2019-04-16T02:51:22.423Z,5.10
2019-04-16T02:54:01.425Z,5.20
2019-04-16T02:56:52.058Z,5.20
2019-04-16T02:59:24.519Z,5.20
2019-04-16T03:02:11.727Z,5.10
2019-04-16T03:04:47.979Z,5.10
2019-04-16T03:07:17.287Z,5.10
2019-04-16T03:10:00.295Z,5.00
2019-04-16T03:12:20.632Z,5.00
2019-04-16T03:14:48.538Z,4.90
2019-04-16T03:17:39.535Z,4.90
2019-04-16T03:20:11.243Z,4.80
2019-04-16T03:22:40.531Z,4.70
2019-04-16T03:25:13.622Z,4.70
2019-04-16T03:27:40.944Z,4.80
2019-04-16T03:30:10.371Z,4.80
2019-04-16T03:32:50.345Z,4.80
2019-04-16T03:35:25.339Z,4.70
2019-04-16T03:37:50.758Z,4.70
2019-04-16T03:40:24.750Z,4.70
2019-04-16T03:42:51.058Z,4.60
2019-04-16T03:45:20.348Z,4.60
2019-04-16T03:47:51.344Z,4.60
2019-04-16T03:50:20.687Z,4.60
2019-04-16T03:52:50.019Z,4.60
2019-04-16T03:55:19.306Z,4.70
2019-04-16T03:57:48.566Z,4.70
2019-04-16T04:00:18.058Z,4.70
2019-04-16T04:02:47.366Z,4.70
2019-04-16T04:05:16.665Z,4.70
2019-04-16T04:07:45.930Z,4.60
2019-04-16T04:10:29.058Z,4.60
2019-04-16T04:12:46.614Z,4.60
2019-04-16T04:15:16.054Z,4.60
2019-04-16T04:17:45.541Z,4.50
2019-04-16T04:20:18.429Z,4.60
2019-04-16T04:22:45.841Z,4.60
2019-04-16T04:25:15.126Z,4.60
2019-04-16T04:27:46.646Z,4.60
2019-04-16T04:30:16.753Z,4.50
2019-04-16T04:32:47.636Z,4.50
2019-04-16T04:35:20.199Z,4.60
2019-04-16T04:37:47.965Z,4.60
2019-04-16T04:40:17.662Z,4.60
2019-04-16T04:42:51.475Z,4.70
2019-04-16T04:45:20.900Z,4.80
2019-04-16T04:47:51.708Z,4.80
2019-04-16T04:50:21.109Z,4.80
2019-04-16T04:52:50.421Z,4.70
2019-04-16T04:55:19.881Z,4.70
2019-04-16T04:57:49.144Z,4.70
2019-04-16T05:00:18.524Z,4.70
2019-04-16T05:02:48.845Z,4.80
2019-04-16T05:05:25.559Z,4.90
2019-04-16T05:07:54.501Z,4.90
2019-04-16T05:10:23.768Z,4.90
2019-04-16T05:15:23.327Z,5.00
2019-04-16T05:17:52.585Z,5.10
2019-04-16T05:20:21.924Z,5.10
2019-04-16T05:22:53.583Z,5.20
2019-04-16T05:25:22.304Z,5.20
2019-04-16T05:27:51.667Z,5.20
2019-04-16T05:30:22.152Z,5.30
2019-04-16T05:32:51.449Z,5.30
2019-04-16T05:35:20.928Z,5.40
2019-04-16T05:37:51.556Z,5.50
2019-04-16T05:40:21.165Z,5.50
2019-04-16T05:42:52.677Z,5.60
2019-04-16T05:45:21.451Z,5.60
2019-04-16T05:47:50.747Z,5.70
2019-04-16T05:50:20.079Z,5.80
2019-04-16T05:52:49.607Z,5.80
2019-04-16T05:55:26.947Z,5.90
2019-04-16T05:57:58.204Z,5.90
2019-04-16T06:00:41.723Z,6.00
2019-04-16T06:03:11.734Z,6.00
2019-04-16T06:05:41.119Z,6.10
2019-04-16T06:08:13.515Z,6.10
2019-04-16T06:10:43.035Z,6.20
2019-04-16T06:13:37.393Z,6.20
2019-04-16T06:16:25.974Z,6.30
2019-04-16T06:19:14.671Z,6.40
2019-04-16T06:22:21.456Z,6.40
2019-04-16T06:25:15.380Z,6.50
2019-04-16T06:28:05.975Z,6.50
2019-04-16T06:30:53.082Z,6.60
2019-04-16T06:33:36.018Z,6.60
2019-04-16T06:36:26.973Z,6.70
2019-04-16T06:39:02.280Z,6.80
2019-04-16T06:41:52.498Z,6.80
2019-04-16T06:44:24.402Z,6.90
2019-04-16T06:47:12.706Z,6.90
2019-04-16T06:49:52.174Z,7.00
2019-04-16T06:52:39.283Z,7.10
2019-04-16T06:55:28.257Z,7.10
2019-04-16T06:58:22.846Z,7.20
2019-04-16T07:01:14.074Z,7.20
2019-04-16T07:03:47.434Z,7.30
2019-04-16T07:06:36.387Z,7.30
2019-04-16T07:09:26.459Z,7.40
2019-04-16T07:11:59.003Z,7.50
2019-04-16T07:14:28.474Z,7.50
2019-04-16T07:17:00.111Z,7.60
2019-04-16T07:19:28.888Z,7.60
2019-04-16T07:21:58.258Z,7.70
2019-04-16T07:24:30.827Z,7.70
2019-04-16T07:26:58.989Z,7.80
2019-04-16T07:29:57.757Z,7.90
2019-04-16T07:32:45.246Z,8.00
2019-04-16T07:35:32.756Z,8.00
2019-04-16T07:38:19.242Z,8.00
2019-04-16T07:41:12.311Z,8.10
2019-04-16T07:44:04.431Z,8.20
2019-04-16T07:46:48.663Z,8.20
2019-04-16T07:49:35.737Z,8.30
2019-04-16T07:52:12.545Z,8.40
2019-04-16T07:54:57.009Z,8.40
2019-04-16T07:57:26.385Z,8.50
2019-04-16T07:59:56.545Z,8.60
2019-04-16T08:02:25.835Z,8.60
2019-04-16T08:04:55.161Z,8.70
2019-04-16T08:07:24.461Z,8.80
2019-04-16T08:09:53.841Z,8.80
2019-04-16T08:12:30.544Z,8.90
2019-04-16T08:14:54.206Z,8.90
2019-04-16T08:17:23.521Z,9.00
2019-04-16T08:19:55.320Z,9.00
2019-04-16T08:22:23.887Z,9.10
2019-04-16T08:25:02.732Z,9.10
2019-04-16T08:27:28.511Z,9.20
2019-04-16T08:30:02.229Z,9.30
2019-04-16T08:32:28.853Z,9.30
2019-04-16T08:34:58.236Z,9.40
2019-04-16T08:37:27.569Z,9.50
2019-04-16T08:39:56.960Z,9.60
2019-04-16T08:42:29.327Z,9.60
2019-04-16T08:44:57.312Z,9.70
2019-04-16T08:47:26.588Z,9.70
2019-04-16T08:49:56.200Z,9.80
2019-04-16T08:52:25.568Z,9.80
2019-04-16T08:54:55.081Z,9.90
2019-04-16T08:57:24.486Z,9.90
2019-04-16T08:59:53.808Z,10.00
2019-04-16T09:02:23.600Z,10.00
2019-04-16T09:04:54.035Z,10.00
2019-04-16T09:07:41.874Z,10.10
2019-04-16T09:10:23.105Z,10.10
2019-04-16T09:13:02.267Z,10.20
2019-04-16T09:15:27.268Z,10.20
2019-04-16T09:18:14.384Z,10.30
2019-04-16T09:20:44.632Z,10.30
2019-04-16T09:23:13.940Z,10.40
2019-04-16T09:26:12.996Z,10.40
2019-04-16T09:28:40.403Z,10.40
2019-04-16T09:31:37.755Z,10.50
2019-04-16T09:34:26.083Z,10.50
2019-04-16T09:37:18.272Z,10.50
2019-04-16T09:40:00.335Z,10.60
2019-04-16T09:42:30.031Z,10.60
2019-04-16T09:45:01.863Z,10.70
2019-04-16T09:47:32.650Z,10.80
2019-04-16T09:50:01.389Z,10.90
2019-04-16T09:52:30.760Z,10.90
2019-04-16T09:55:00.155Z,11.00
2019-04-16T09:57:31.417Z,11.00
2019-04-16T10:00:08.455Z,11.10
2019-04-16T10:02:38.513Z,11.10
2019-04-16T10:05:08.864Z,11.20
2019-04-16T10:07:40.377Z,11.20
2019-04-16T10:10:09.177Z,11.30
2019-04-16T10:12:40.340Z,11.30
2019-04-16T10:15:09.916Z,11.30
2019-04-16T10:17:39.241Z,11.40
2019-04-16T10:20:08.739Z,11.40
2019-04-16T10:22:38.124Z,11.50
2019-04-16T10:25:14.704Z,11.50
2019-04-16T10:27:46.482Z,11.60
2019-04-16T10:30:20.409Z,11.60
2019-04-16T10:32:49.720Z,11.70
2019-04-16T10:35:19.074Z,11.70
2019-04-16T10:37:48.501Z,11.70
2019-04-16T10:40:24.428Z,11.80
2019-04-16T10:43:15.786Z,11.80
2019-04-16T10:46:03.117Z,11.90
2019-04-16T10:48:51.482Z,12.00
2019-04-16T10:51:29.381Z,12.00
2019-04-16T10:54:19.082Z,12.10
2019-04-16T10:57:22.240Z,12.20
2019-04-16T11:00:22.646Z,12.30
2019-04-16T11:02:56.363Z,12.60
2019-04-16T11:05:57.767Z,13.20
2019-04-16T11:08:27.235Z,13.90
2019-04-16T11:10:56.542Z,14.60
2019-04-16T11:13:59.211Z,15.10
2019-04-16T11:16:18.327Z,15.50
2019-04-16T11:18:47.750Z,15.90
2019-04-16T11:21:17.142Z,16.10
2019-04-16T11:23:46.422Z,16.30
2019-04-16T11:26:15.698Z,16.50
2019-04-16T11:28:45.007Z,16.70
2019-04-16T11:31:17.573Z,16.80
2019-04-16T11:33:46.868Z,16.80
2019-04-16T11:36:20.538Z,16.90
2019-04-16T11:38:47.065Z,17.00
2019-04-16T11:41:16.441Z,17.10
2019-04-16T11:43:45.746Z,17.30
2019-04-16T11:46:15.104Z,17.50
2019-04-16T11:48:44.574Z,17.70
2019-04-16T11:51:13.863Z,18.00
2019-04-16T11:53:43.134Z,18.40
2019-04-16T11:56:12.486Z,18.80
2019-04-16T11:58:43.986Z,19.20
2019-04-16T12:01:31.745Z,19.70
2019-04-16T12:04:15.639Z,20.20
2019-04-16T12:07:00.296Z,20.70
2019-04-16T12:09:39.197Z,21.10
2019-04-16T12:12:19.092Z,21.50
2019-04-16T12:15:02.404Z,21.80
2019-04-16T12:17:50.776Z,22.00
2019-04-16T12:20:41.890Z,22.30
2019-04-16T12:23:45.386Z,22.50
2019-04-16T12:26:42.385Z,22.50
2019-04-16T12:29:31.639Z,22.60
2019-04-16T12:32:19.962Z,22.80
2019-04-16T12:35:14.486Z,23.00
2019-04-16T12:38:01.697Z,23.20
2019-04-16T12:40:42.623Z,23.40
2019-04-16T12:43:23.167Z,23.60
2019-04-16T17:20:26.384Z,20.20
2019-04-16T17:22:55.707Z,20.20
2019-04-16T17:25:36.167Z,19.90
2019-04-16T17:27:55.931Z,19.50
2019-04-16T17:30:25.327Z,19.20
2019-04-16T17:32:54.783Z,19.00
2019-04-16T17:35:24.115Z,18.70
2019-04-16T17:37:53.532Z,18.40
2019-04-16T17:40:32.191Z,18.20
2019-04-16T17:43:12.631Z,18.00
2019-04-16T17:45:55.744Z,17.80
2019-04-16T17:48:40.202Z,17.60
2019-04-16T17:51:24.739Z,17.30
2019-04-16T17:54:02.530Z,17.20
2019-04-16T17:56:44.227Z,17.00
2019-04-16T17:59:18.234Z,16.80
2019-04-16T18:02:18.595Z,16.70
2019-04-16T18:05:05.742Z,16.50
2019-04-16T18:08:05.678Z,16.30
2019-04-16T18:11:00.370Z,16.20
2019-04-16T18:13:44.562Z,16.00
2019-04-16T18:16:24.235Z,15.90
2019-04-16T18:19:17.783Z,15.80
2019-04-16T18:22:08.817Z,15.70
2019-04-16T18:24:56.018Z,15.50
2019-04-16T18:27:44.384Z,15.40
2019-04-16T18:30:29.771Z,15.40
2019-04-16T18:33:21.261Z,15.20
2019-04-16T18:35:54.665Z,15.10
2019-04-16T18:38:31.088Z,15.00
2019-04-16T18:41:11.473Z,14.90
2019-04-16T18:43:56.332Z,14.90
2019-04-16T18:46:43.543Z,14.80
2019-04-16T18:49:17.369Z,14.70
2019-04-16T18:51:46.864Z,14.70
2019-04-16T18:54:16.102Z,14.60
2019-04-16T18:56:45.459Z,14.60
2019-04-16T18:59:14.662Z,14.50
2019-04-16T19:01:45.835Z,14.40
2019-04-16T19:04:15.123Z,14.40
2019-04-16T19:06:44.462Z,14.30
2019-04-16T19:09:14.164Z,14.20
2019-04-16T19:11:43.431Z,14.20
2019-04-16T19:14:13.874Z,14.10
2019-04-16T19:16:43.656Z,14.10
2019-04-16T19:19:12.933Z,14.10
2019-04-16T19:21:42.812Z,14.10
2019-04-16T19:24:12.251Z,14.10
2019-04-16T19:26:41.595Z,14.10
2019-04-16T19:29:14.491Z,14.10
2019-04-16T19:31:42.689Z,14.10
2019-04-16T19:34:11.923Z,14.10
2019-04-16T19:36:41.187Z,14.10
2019-04-16T19:39:14.209Z,14.10
2019-04-16T19:41:41.555Z,14.10
2019-04-16T19:44:10.855Z,14.20
2019-04-16T19:46:40.162Z,14.10
2019-04-16T19:49:09.534Z,14.10
2019-04-16T19:51:41.122Z,14.10
2019-04-16T19:54:09.879Z,14.10
2019-04-16T19:56:39.499Z,14.10
2019-04-16T19:59:08.785Z,14.10
2019-04-16T20:01:38.222Z,14.10
2019-04-16T20:04:10.771Z,14.10
2019-04-16T20:06:38.529Z,14.10
2019-04-16T20:09:08.206Z,14.10
2019-04-16T20:11:37.569Z,14.10
2019-04-16T20:14:06.884Z,14.10
2019-04-16T20:16:36.215Z,14.10
2019-04-16T20:19:05.701Z,14.10
2019-04-16T20:21:37.687Z,14.10
2019-04-16T20:24:05.983Z,14.00
2019-04-16T20:26:35.300Z,14.00
2019-04-16T20:29:04.743Z,14.00
2019-04-16T20:31:34.205Z,14.00
2019-04-16T20:34:03.998Z,13.90
2019-04-16T20:36:33.600Z,13.90
2019-04-16T20:39:03.361Z,13.90
2019-04-16T20:41:35.177Z,13.90
2019-04-16T20:44:08.444Z,13.80
2019-04-16T20:46:35.958Z,13.90
2019-04-16T20:49:10.700Z,13.90
2019-04-16T20:51:41.897Z,13.90
2019-04-16T20:54:13.770Z,13.90
2019-04-16T20:56:42.692Z,13.80
2019-04-16T20:59:12.236Z,13.80
2019-04-16T21:01:42.387Z,13.70
2019-04-16T21:04:12.030Z,13.70
2019-04-16T21:06:42.231Z,13.60
2019-04-16T21:09:14.183Z,13.60
2019-04-16T21:11:43.573Z,13.60
2019-04-16T21:14:13.174Z,13.50
2019-04-16T21:16:42.746Z,13.50
2019-04-16T21:19:22.694Z,13.40
2019-04-16T21:21:43.019Z,13.40
2019-04-16T21:24:13.663Z,13.40
2019-04-16T21:26:43.214Z,13.40
2019-04-16T21:29:40.486Z,13.40
2019-04-16T21:32:16.671Z,13.30
2019-04-16T21:34:49.533Z,13.30
2019-04-16T21:37:37.838Z,13.30
2019-04-16T21:40:07.609Z,13.30
2019-04-16T21:42:36.954Z,13.30
2019-04-16T21:45:06.813Z,13.20
2019-04-16T21:47:36.109Z,13.10
2019-04-16T21:50:06.021Z,13.10
2019-04-16T21:52:35.299Z,13.10
2019-04-16T21:55:05.232Z,13.00
2019-04-16T21:57:34.637Z,13.00
2019-04-16T22:00:07.566Z,12.90
2019-04-16T22:02:38.841Z,12.80
2019-04-16T22:05:09.649Z,12.80
2019-04-16T22:07:38.927Z,12.70
2019-04-16T22:10:08.466Z,12.70
2019-04-16T22:12:37.768Z,12.60
2019-04-16T22:15:08.153Z,12.60
2019-04-16T22:17:37.570Z,12.60
2019-04-16T22:20:07.502Z,12.50
2019-04-16T22:22:36.949Z,12.50
2019-04-16T22:25:06.300Z,12.60
2019-04-16T22:27:36.831Z,12.50
2019-04-16T22:30:06.761Z,12.50
2019-04-16T22:32:36.177Z,12.50
2019-04-16T22:35:05.646Z,12.50
2019-04-16T22:37:34.945Z,12.50
2019-04-16T22:40:32.432Z,12.50
2019-04-16T22:43:32.724Z,12.40
2019-04-16T22:46:15.249Z,12.40
2019-04-16T22:48:58.375Z,12.30
2019-04-16T22:51:27.746Z,12.30
2019-04-16T22:53:57.052Z,12.20
2019-04-16T22:56:36.158Z,12.20
2019-04-16T22:59:06.640Z,12.20
2019-04-16T23:01:37.876Z,12.30
2019-04-16T23:04:07.188Z,12.30
2019-04-16T23:06:38.719Z,12.30
2019-04-16T23:09:08.272Z,12.30
2019-04-16T23:11:39.141Z,12.30
2019-04-16T23:14:08.581Z,12.20
2019-04-16T23:16:41.869Z,12.20
2019-04-16T23:19:08.988Z,12.10
2019-04-16T23:21:42.344Z,12.10
2019-04-16T23:24:09.243Z,12.10
2019-04-16T23:26:38.548Z,12.10
2019-04-16T23:29:07.936Z,12.10
2019-04-16T23:31:37.228Z,12.10
2019-04-16T23:34:07.163Z,12.10
2019-04-16T23:36:36.487Z,12.10
2019-04-16T23:39:07.211Z,12.10
2019-04-16T23:41:36.503Z,12.10
2019-04-16T23:44:22.632Z,12.10
2019-04-16T23:47:16.039Z,12.00
2019-04-16T23:50:16.263Z,12.00
2019-04-16T23:52:52.565Z,12.00
2019-04-16T23:55:45.818Z,11.90
2019-04-16T23:58:28.601Z,11.90
